createdAt,value
2018-01-31T01:52:20.700Z,89.95
2018-01-31T01:52:21.476Z,89.38
2018-01-31T01:52:22.883Z,89
2018-01-31T01:52:48.983Z,89.04
2018-01-31T01:53:15.084Z,89.14
2018-01-31T01:53:41.179Z,89.04
2018-01-31T01:54:07.278Z,89.09
2018-01-31T01:54:33.378Z,89.47
2018-01-31T01:54:59.477Z,89.61
2018-01-31T01:55:25.582Z,89.76
2018-01-31T01:55:51.679Z,89.28
2018-01-31T01:56:17.778Z,89.57
2018-01-31T01:56:43.882Z,89.86
2018-01-31T01:57:09.996Z,89.67
2018-01-31T01:57:36.098Z,89.9
2018-01-31T01:58:02.198Z,90.19
2018-01-31T01:58:28.303Z,89.67
2018-01-31T01:58:54.402Z,89.67
2018-01-31T01:59:20.523Z,90.05
2018-01-31T01:59:46.606Z,90.61
2018-01-31T02:00:12.703Z,91.47
2018-01-31T02:00:38.807Z,92.04
2018-01-31T02:01:04.906Z,92.23
2018-01-31T02:01:31.007Z,92.61
2018-01-31T02:01:57.113Z,93.37
2018-01-31T02:02:23.210Z,93.18
2018-01-31T02:02:49.330Z,93.94
2018-01-31T02:03:15.430Z,94.89
2018-01-31T02:03:41.549Z,95.55
2018-01-31T02:04:07.649Z,95.36
2018-01-31T02:04:33.750Z,95.46
2018-01-31T02:04:59.852Z,96.31
2018-01-31T02:05:25.950Z,96.03
2018-01-31T02:05:52.050Z,96.31
2018-01-31T02:06:18.151Z,96.22
2018-01-31T02:06:44.254Z,96.5
2018-01-31T02:07:10.349Z,96.41
2018-01-31T02:07:36.458Z,96.5
2018-01-31T02:08:02.556Z,96.41
2018-01-31T02:08:28.654Z,96.12
2018-01-31T02:08:54.776Z,96.88
2018-01-31T02:09:20.872Z,96.88
2018-01-31T02:09:46.975Z,96.98
2018-01-31T02:10:13.073Z,97.27
2018-01-31T02:10:39.179Z,97.74
2018-01-31T02:11:05.278Z,97.92
2018-01-31T02:11:31.382Z,99.16
2018-01-31T02:11:57.478Z,99.26
2018-01-31T02:12:23.578Z,99.35
2018-01-31T02:12:49.686Z,99.16
2018-01-31T02:13:15.785Z,99.44
2018-01-31T02:13:41.885Z,99.83
2018-01-31T02:14:07.988Z,99.99
2018-01-31T02:14:34.084Z,99.99
2018-01-31T02:15:00.190Z,99.99
2018-01-31T02:15:26.299Z,99.99
2018-01-31T02:15:52.402Z,99.99
2018-01-31T02:16:18.499Z,99.99
2018-01-31T02:16:44.602Z,99.99
2018-01-31T02:17:10.702Z,99.99
2018-01-31T02:17:36.810Z,99.99
2018-01-31T02:18:02.914Z,99.99
2018-01-31T02:18:29.009Z,99.99
2018-01-31T02:18:55.108Z,99.99
2018-01-31T02:19:21.215Z,99.99
2018-01-31T02:19:47.313Z,99.99
2018-01-31T02:20:13.409Z,99.99
2018-01-31T02:20:39.518Z,99.99
2018-01-31T02:21:05.617Z,99.99
2018-01-31T02:21:31.733Z,99.99
2018-01-31T02:21:57.842Z,99.99
2018-01-31T02:22:23.944Z,99.99
2018-01-31T02:22:50.039Z,99.99
2018-01-31T02:23:16.136Z,99.99
2018-01-31T02:23:42.244Z,99.99
2018-01-31T02:24:08.340Z,99.99
2018-01-31T02:24:34.444Z,99.99
2018-01-31T02:25:00.542Z,99.99
2018-01-31T02:25:26.644Z,99.99
2018-01-31T02:25:52.769Z,99.99
2018-01-31T02:26:18.883Z,99.99
2018-01-31T02:26:44.985Z,99.99
2018-01-31T02:27:11.081Z,99.99
2018-01-31T02:27:37.177Z,99.99
2018-01-31T02:28:03.276Z,99.99
2018-01-31T02:28:29.376Z,99.99
2018-01-31T02:28:55.479Z,99.99
2018-01-31T02:29:21.579Z,99.99
2018-01-31T02:29:47.707Z,99.99
2018-01-31T02:30:13.804Z,99.99
2018-01-31T02:30:39.911Z,99.99
2018-01-31T02:31:06.022Z,99.99
2018-01-31T02:31:32.128Z,99.99
2018-01-31T02:31:58.234Z,99.99
2018-01-31T02:32:24.331Z,99.99
2018-01-31T02:32:50.435Z,99.99
2018-01-31T02:33:16.534Z,99.99
2018-01-31T02:33:42.637Z,99.99
2018-01-31T02:34:08.734Z,99.99
2018-01-31T02:34:34.850Z,99.99
2018-01-31T02:35:00.953Z,99.99
2018-01-31T02:35:27.048Z,99.99
2018-01-31T02:35:53.149Z,99.99
2018-01-31T02:36:19.249Z,99.99
2018-01-31T02:36:45.358Z,99.99
2018-01-31T02:37:11.453Z,99.99
2018-01-31T02:37:37.556Z,99.99
2018-01-31T02:38:03.652Z,99.99
2018-01-31T02:38:29.757Z,99.99
2018-01-31T02:38:55.864Z,99.99
2018-01-31T02:39:21.977Z,99.99
2018-01-31T02:39:48.084Z,99.99
2018-01-31T02:40:14.184Z,99.99
2018-01-31T02:40:40.285Z,99.99
2018-01-31T02:41:06.380Z,99.99
2018-01-31T02:41:32.502Z,99.99
2018-01-31T02:41:58.591Z,99.99
2018-01-31T02:42:24.705Z,99.99
2018-01-31T02:42:50.802Z,99.99
2018-01-31T02:43:16.901Z,99.99
2018-01-31T02:43:43.004Z,99.99
2018-01-31T02:44:09.098Z,99.99
2018-01-31T02:44:35.202Z,99.99
2018-01-31T02:45:01.304Z,99.99
2018-01-31T02:45:27.402Z,99.99
2018-01-31T02:45:53.501Z,99.99
2018-01-31T02:46:19.618Z,99.99
2018-01-31T02:46:45.724Z,99.99
2018-01-31T02:47:11.835Z,99.99
2018-01-31T02:47:37.960Z,99.99
2018-01-31T02:48:04.052Z,99.99
2018-01-31T02:48:30.153Z,99.99
2018-01-31T02:48:56.262Z,99.99
2018-01-31T02:49:22.365Z,99.99
2018-01-31T02:49:48.460Z,99.99
2018-01-31T02:50:14.619Z,99.99
2018-01-31T02:50:40.721Z,99.99
2018-01-31T02:51:06.823Z,99.99
2018-01-31T02:51:32.924Z,99.99
2018-01-31T02:51:59.029Z,99.99
2018-01-31T02:52:25.167Z,99.99
2018-01-31T02:52:51.272Z,99.99
2018-01-31T02:53:17.384Z,99.99
2018-01-31T02:53:43.482Z,99.99
2018-01-31T02:54:09.588Z,99.99
2018-01-31T02:54:35.682Z,99.99
2018-01-31T02:55:01.814Z,99.99
2018-01-31T02:55:27.911Z,99.99
2018-01-31T02:55:54.017Z,99.99
2018-01-31T02:56:20.119Z,99.99
2018-01-31T02:56:46.216Z,99.99
2018-01-31T02:57:12.312Z,99.99
2018-01-31T02:57:38.417Z,99.99
2018-01-31T02:58:04.520Z,99.99
2018-01-31T02:58:30.613Z,99.99
2018-01-31T02:58:56.757Z,99.99
2018-01-31T02:59:22.847Z,99.99
2018-01-31T02:59:48.945Z,99.99
2018-01-31T03:00:15.069Z,99.99
2018-01-31T03:00:41.184Z,99.99
2018-01-31T03:01:07.305Z,99.99
2018-01-31T03:01:33.402Z,99.99
2018-01-31T03:01:59.512Z,99.99
2018-01-31T03:02:25.609Z,99.99
2018-01-31T03:02:51.717Z,99.99
2018-01-31T03:03:17.815Z,99.99
2018-01-31T03:03:43.916Z,99.99
2018-01-31T03:04:10.015Z,99.99
2018-01-31T03:04:36.113Z,99.99
2018-01-31T03:05:02.222Z,99.99
2018-01-31T03:05:28.318Z,99.99
2018-01-31T03:05:54.414Z,99.99
2018-01-31T03:06:20.513Z,99.99
2018-01-31T03:06:46.619Z,99.99
2018-01-31T03:07:12.718Z,99.99
2018-01-31T03:07:38.824Z,99.99
2018-01-31T03:08:04.929Z,99.99
2018-01-31T03:08:31.028Z,99.99
2018-01-31T03:08:57.121Z,99.99
2018-01-31T03:09:23.221Z,99.99
2018-01-31T03:09:49.327Z,99.99
2018-01-31T03:10:15.419Z,99.99
2018-01-31T03:10:41.526Z,99.99
2018-01-31T03:11:07.628Z,99.99
2018-01-31T03:11:33.723Z,99.99
2018-01-31T03:11:59.820Z,99.99
2018-01-31T03:12:25.918Z,99.99
2018-01-31T03:12:52.020Z,99.99
2018-01-31T03:13:18.440Z,99.99
2018-01-31T03:13:45.326Z,99.99
2018-01-31T03:14:12.406Z,99.99
2018-01-31T03:14:39.481Z,99.99
2018-01-31T03:15:06.012Z,99.99
2018-01-31T03:15:32.042Z,99.99
2018-01-31T03:15:58.907Z,99.99
2018-01-31T03:16:25.405Z,99.99
2018-01-31T03:16:51.766Z,99.99
2018-01-31T03:17:18.021Z,99.99
2018-01-31T03:17:44.697Z,99.99
2018-01-31T03:18:10.939Z,99.99
2018-01-31T03:18:37.202Z,99.99
2018-01-31T03:19:03.894Z,99.99
2018-01-31T03:19:30.185Z,99.99
2018-01-31T03:19:56.734Z,99.99
2018-01-31T03:20:22.867Z,99.99
2018-01-31T03:20:49.071Z,99.99
2018-01-31T03:21:15.921Z,99.99
2018-01-31T03:21:42.645Z,99.99
2018-01-31T03:22:08.984Z,99.99
2018-01-31T03:22:35.142Z,99.99
2018-01-31T03:23:01.255Z,99.99
2018-01-31T03:23:27.799Z,99.99
2018-01-31T03:23:53.949Z,99.99
2018-01-31T03:24:20.358Z,99.99
2018-01-31T03:24:46.462Z,99.99
2018-01-31T03:25:12.562Z,99.99
2018-01-31T03:25:39.550Z,99.99
2018-01-31T03:26:05.950Z,99.99
2018-01-31T03:26:32.590Z,99.99
2018-01-31T03:26:58.740Z,99.99
2018-01-31T03:27:25.022Z,99.99
2018-01-31T03:27:51.552Z,99.99
2018-01-31T03:28:18.255Z,99.99
2018-01-31T03:28:44.360Z,99.99
2018-01-31T03:29:10.702Z,99.99
2018-01-31T03:29:37.324Z,99.99
2018-01-31T03:30:04.108Z,99.99
2018-01-31T03:30:30.305Z,99.99
2018-01-31T03:30:57.155Z,99.99
2018-01-31T03:31:23.480Z,99.99
2018-01-31T03:31:49.768Z,99.99
2018-01-31T03:32:16.139Z,99.99
2018-01-31T03:32:42.384Z,99.99
2018-01-31T03:33:08.458Z,99.99
2018-01-31T03:33:34.596Z,99.99
2018-01-31T03:34:00.731Z,99.99
2018-01-31T03:34:26.872Z,99.99
2018-01-31T03:34:53.071Z,99.99
2018-01-31T03:35:19.214Z,99.99
2018-01-31T03:35:45.365Z,99.99
2018-01-31T03:36:11.507Z,99.99
2018-01-31T03:36:37.614Z,99.99
2018-01-31T03:37:03.856Z,99.99
2018-01-31T03:37:30.150Z,99.99
2018-01-31T03:37:56.275Z,99.99
2018-01-31T03:38:22.446Z,99.99
2018-01-31T03:38:48.543Z,99.99
2018-01-31T03:39:14.648Z,99.99
2018-01-31T03:39:40.784Z,99.99
2018-01-31T03:40:06.889Z,99.99
2018-01-31T03:40:33.036Z,99.99
2018-01-31T03:40:59.182Z,99.99
2018-01-31T03:41:25.366Z,99.99
2018-01-31T03:41:51.596Z,99.99
2018-01-31T03:42:17.749Z,99.99
2018-01-31T03:42:43.927Z,99.99
2018-01-31T03:43:10.046Z,99.99
2018-01-31T03:43:36.192Z,99.99
2018-01-31T03:44:02.296Z,99.99
2018-01-31T03:44:28.399Z,99.99
2018-01-31T03:44:54.520Z,99.99
2018-01-31T03:45:20.654Z,99.99
2018-01-31T03:45:46.806Z,99.99
2018-01-31T03:46:13.111Z,99.99
2018-01-31T03:46:39.426Z,99.99
2018-01-31T03:47:05.538Z,99.99
2018-01-31T03:47:31.639Z,99.99
2018-01-31T03:47:57.778Z,99.99
2018-01-31T03:48:23.896Z,99.99
2018-01-31T03:48:50.160Z,99.99
2018-01-31T03:49:16.506Z,99.99
2018-01-31T03:49:42.583Z,99.99
2018-01-31T03:50:08.695Z,99.99
2018-01-31T03:50:35.039Z,99.99
2018-01-31T03:51:01.160Z,99.99
2018-01-31T03:51:27.383Z,99.99
2018-01-31T03:51:53.438Z,99.99
2018-01-31T03:52:19.625Z,99.99
2018-01-31T03:52:45.773Z,99.99
2018-01-31T03:53:11.889Z,99.99
2018-01-31T03:53:38.007Z,99.99
2018-01-31T03:54:04.142Z,99.99
2018-01-31T03:54:30.378Z,99.99
2018-01-31T03:54:56.644Z,99.99
2018-01-31T03:55:22.854Z,99.99
2018-01-31T03:55:49.090Z,99.99
2018-01-31T03:56:15.230Z,99.99
2018-01-31T03:56:41.694Z,99.99
2018-01-31T03:57:07.796Z,99.99
2018-01-31T03:57:34.041Z,99.99
2018-01-31T03:58:00.305Z,99.99
2018-01-31T03:58:26.439Z,99.99
2018-01-31T03:58:52.667Z,99.99
2018-01-31T03:59:18.806Z,99.99
2018-01-31T03:59:44.911Z,99.99
2018-01-31T04:00:11.026Z,99.99
2018-01-31T04:00:37.357Z,99.99
2018-01-31T04:01:03.662Z,99.99
2018-01-31T04:01:30.104Z,99.99
2018-01-31T04:01:56.170Z,99.99
2018-01-31T04:02:22.292Z,99.99
2018-01-31T04:02:48.419Z,99.99
2018-01-31T04:03:14.497Z,99.99
2018-01-31T04:03:40.666Z,99.99
2018-01-31T04:04:06.957Z,99.99
2018-01-31T04:04:33.298Z,99.99
2018-01-31T04:04:59.437Z,99.99
2018-01-31T04:05:25.539Z,99.99
2018-01-31T04:05:51.933Z,99.99
2018-01-31T04:06:18.042Z,99.99
2018-01-31T04:06:44.205Z,99.99
2018-01-31T04:07:10.361Z,99.99
2018-01-31T04:07:36.500Z,99.99
2018-01-31T04:08:02.681Z,99.99
2018-01-31T04:08:28.826Z,99.99
2018-01-31T04:08:54.943Z,99.99
2018-01-31T04:09:21.116Z,99.99
2018-01-31T04:09:47.214Z,99.99
2018-01-31T04:10:13.338Z,99.99
2018-01-31T04:10:39.426Z,99.99
2018-01-31T04:11:05.641Z,99.99
2018-01-31T04:11:31.856Z,99.99
2018-01-31T04:11:57.985Z,99.99
2018-01-31T04:12:24.258Z,99.99
2018-01-31T04:12:50.456Z,99.99
2018-01-31T04:13:16.513Z,99.99
2018-01-31T04:13:42.785Z,99.99
2018-01-31T04:14:08.993Z,99.99
2018-01-31T04:14:35.134Z,99.99
2018-01-31T04:15:01.320Z,99.99
2018-01-31T04:15:27.419Z,99.99
2018-01-31T04:15:53.552Z,99.99
2018-01-31T04:16:19.692Z,99.99
2018-01-31T04:16:45.882Z,99.99
2018-01-31T04:17:11.982Z,99.99
2018-01-31T04:17:38.143Z,99.99
2018-01-31T04:18:04.304Z,99.99
2018-01-31T04:18:30.422Z,99.99
2018-01-31T04:18:56.582Z,99.99
2018-01-31T04:19:22.786Z,99.99
2018-01-31T04:19:48.902Z,99.99
2018-01-31T04:20:15.015Z,99.99
2018-01-31T04:20:41.158Z,99.99
2018-01-31T04:21:07.263Z,99.99
2018-01-31T04:21:33.457Z,99.99
2018-01-31T04:21:59.698Z,99.99
2018-01-31T04:22:25.832Z,99.99
2018-01-31T04:22:51.979Z,99.99
2018-01-31T04:23:18.147Z,99.99
2018-01-31T04:23:44.271Z,99.99
2018-01-31T04:24:10.418Z,99.99
2018-01-31T04:24:36.778Z,99.99
2018-01-31T04:25:02.885Z,99.99
2018-01-31T04:25:29.029Z,99.99
2018-01-31T04:25:55.250Z,99.99
2018-01-31T04:26:21.395Z,99.99
2018-01-31T04:26:47.562Z,99.99
2018-01-31T04:27:13.774Z,99.99
2018-01-31T04:27:40.034Z,99.99
2018-01-31T04:28:06.159Z,99.99
2018-01-31T04:28:32.271Z,99.99
2018-01-31T04:28:58.380Z,99.99
2018-01-31T04:29:24.485Z,99.99
2018-01-31T04:29:50.601Z,99.99
2018-01-31T04:30:16.722Z,99.99
2018-01-31T04:30:42.819Z,99.99
2018-01-31T04:31:08.920Z,99.99
2018-01-31T04:31:35.027Z,99.99
2018-01-31T04:32:01.153Z,99.99
2018-01-31T04:32:27.258Z,99.99
2018-01-31T04:32:53.358Z,99.99
2018-01-31T04:33:19.462Z,99.99
2018-01-31T04:33:45.587Z,99.99
2018-01-31T04:34:11.686Z,99.99
2018-01-31T04:34:37.797Z,99.99
2018-01-31T04:35:03.917Z,99.99
2018-01-31T04:35:30.031Z,99.99
2018-01-31T04:35:56.133Z,99.99
2018-01-31T04:36:22.245Z,99.99
2018-01-31T04:36:48.352Z,99.99
2018-01-31T04:37:14.443Z,99.99
2018-01-31T04:37:40.553Z,99.99
2018-01-31T04:38:06.662Z,99.99
2018-01-31T04:38:32.803Z,99.99
2018-01-31T04:38:58.975Z,99.99
2018-01-31T04:39:25.019Z,99.99
2018-01-31T04:39:51.166Z,99.99
2018-01-31T04:40:17.265Z,99.99
2018-01-31T04:40:43.383Z,99.99
2018-01-31T04:41:09.531Z,99.99
2018-01-31T04:41:35.640Z,99.99
2018-01-31T04:42:01.749Z,99.99
2018-01-31T04:42:28.121Z,99.99
2018-01-31T04:42:54.398Z,99.99
2018-01-31T04:43:20.478Z,99.99
2018-01-31T04:43:46.710Z,99.99
2018-01-31T04:44:12.834Z,99.99
2018-01-31T04:44:38.932Z,99.99
2018-01-31T04:45:05.035Z,99.99
2018-01-31T04:45:31.147Z,99.99
2018-01-31T04:45:57.250Z,99.99
2018-01-31T04:46:23.356Z,99.99
2018-01-31T04:46:49.453Z,99.99
2018-01-31T04:47:15.553Z,99.99
2018-01-31T04:47:41.657Z,99.99
2018-01-31T04:48:07.753Z,99.99
2018-01-31T04:48:33.854Z,99.99
2018-01-31T04:48:59.957Z,99.99
2018-01-31T04:49:26.075Z,99.99
2018-01-31T04:49:52.171Z,99.99
2018-01-31T04:50:18.274Z,99.99
2018-01-31T04:50:44.374Z,99.99
2018-01-31T04:51:10.480Z,99.99
2018-01-31T04:51:36.584Z,99.99
2018-01-31T04:52:02.681Z,99.99
2018-01-31T04:52:28.801Z,99.99
2018-01-31T04:52:54.897Z,99.99
2018-01-31T04:53:20.997Z,99.99
2018-01-31T04:53:47.136Z,99.99
2018-01-31T04:54:13.237Z,99.99
2018-01-31T04:54:39.336Z,99.99
2018-01-31T04:55:05.451Z,99.99
2018-01-31T04:55:31.555Z,99.99
2018-01-31T04:55:57.658Z,99.99
2018-01-31T04:56:23.758Z,99.99
2018-01-31T04:56:49.864Z,99.99
2018-01-31T04:57:15.966Z,99.99
2018-01-31T04:57:42.072Z,99.99
2018-01-31T04:58:08.169Z,99.99
2018-01-31T04:58:34.267Z,99.99
2018-01-31T04:59:00.372Z,99.99
2018-01-31T04:59:26.469Z,99.99
2018-01-31T04:59:52.569Z,99.99
2018-01-31T05:00:18.666Z,99.99
2018-01-31T05:00:44.770Z,99.99
2018-01-31T05:01:10.872Z,99.99
2018-01-31T05:01:36.969Z,99.99
2018-01-31T05:02:03.069Z,99.99
2018-01-31T05:02:29.170Z,99.99
2018-01-31T05:02:55.272Z,99.99
2018-01-31T05:03:21.389Z,99.99
2018-01-31T05:03:47.495Z,99.99
2018-01-31T05:04:13.600Z,99.99
2018-01-31T05:04:39.698Z,99.99
2018-01-31T05:05:05.801Z,99.99
2018-01-31T05:05:31.904Z,99.99
2018-01-31T05:05:57.999Z,99.99
2018-01-31T05:06:24.099Z,99.99
2018-01-31T05:06:50.201Z,99.99
2018-01-31T05:07:16.300Z,99.99
2018-01-31T05:07:42.404Z,99.99
2018-01-31T05:08:08.496Z,99.99
2018-01-31T05:08:34.618Z,99.99
2018-01-31T05:09:00.728Z,99.99
2018-01-31T05:09:26.828Z,99.99
2018-01-31T05:09:52.929Z,99.99
2018-01-31T05:10:19.028Z,99.99
2018-01-31T05:10:45.139Z,99.99
2018-01-31T05:11:11.254Z,99.99
2018-01-31T05:11:37.352Z,99.99
2018-01-31T05:12:03.453Z,99.99
2018-01-31T05:12:29.553Z,99.99
2018-01-31T05:12:55.674Z,99.99
2018-01-31T05:13:21.770Z,99.99
2018-01-31T05:13:47.875Z,99.99
2018-01-31T05:14:13.971Z,99.99
2018-01-31T05:14:40.075Z,99.99
2018-01-31T05:15:06.174Z,99.99
2018-01-31T05:15:32.271Z,99.99
2018-01-31T05:15:58.378Z,99.99
2018-01-31T05:16:24.492Z,99.99
2018-01-31T05:16:50.592Z,99.99
2018-01-31T05:17:16.706Z,99.99
2018-01-31T05:17:42.827Z,99.99
2018-01-31T05:18:08.929Z,99.99
2018-01-31T05:18:35.032Z,99.99
2018-01-31T05:19:01.141Z,99.99
2018-01-31T05:19:27.260Z,99.99
2018-01-31T05:19:53.358Z,99.99
2018-01-31T05:20:19.455Z,99.99
2018-01-31T05:20:45.561Z,99.99
2018-01-31T05:21:11.662Z,99.99
2018-01-31T05:21:37.765Z,99.99
2018-01-31T05:22:03.863Z,99.99
2018-01-31T05:22:29.971Z,99.99
2018-01-31T05:22:56.073Z,99.99
2018-01-31T05:23:22.189Z,99.99
2018-01-31T05:23:48.292Z,99.99
2018-01-31T05:24:14.393Z,99.99
2018-01-31T05:24:40.495Z,99.99
2018-01-31T05:25:06.611Z,99.99
2018-01-31T05:25:32.716Z,99.99
2018-01-31T05:25:58.812Z,99.99
2018-01-31T05:26:24.913Z,99.99
2018-01-31T05:26:51.020Z,99.99
2018-01-31T05:27:17.121Z,99.99
2018-01-31T05:27:43.219Z,99.99
2018-01-31T05:28:09.316Z,99.99
2018-01-31T05:28:35.419Z,99.99
2018-01-31T05:29:01.517Z,99.99
2018-01-31T05:29:27.614Z,99.99
2018-01-31T05:29:53.720Z,99.99
2018-01-31T05:30:19.819Z,99.99
2018-01-31T05:30:45.917Z,99.99
2018-01-31T05:31:12.045Z,99.99
2018-01-31T05:31:38.149Z,99.99
2018-01-31T05:32:04.242Z,99.99
2018-01-31T05:32:30.341Z,99.99
2018-01-31T05:32:56.441Z,99.99
2018-01-31T05:33:22.538Z,99.99
2018-01-31T05:33:48.643Z,99.99
2018-01-31T05:34:14.743Z,99.99
2018-01-31T05:34:40.845Z,99.99
2018-01-31T05:35:06.949Z,99.99
2018-01-31T05:35:33.050Z,99.99
2018-01-31T05:35:59.150Z,99.99
2018-01-31T05:36:25.255Z,99.99
2018-01-31T05:36:51.366Z,99.99
2018-01-31T05:37:17.473Z,99.99
2018-01-31T05:37:43.571Z,99.99
2018-01-31T05:38:09.675Z,99.99
2018-01-31T05:38:35.780Z,99.99
2018-01-31T05:39:01.898Z,99.99
2018-01-31T05:39:28.002Z,99.99
2018-01-31T05:39:54.115Z,99.99
2018-01-31T05:40:20.231Z,99.99
2018-01-31T05:40:46.360Z,99.99
2018-01-31T05:41:12.469Z,99.99
2018-01-31T05:41:38.574Z,99.99
2018-01-31T05:42:04.679Z,99.99
2018-01-31T05:42:30.777Z,99.99
2018-01-31T05:42:56.896Z,99.99
2018-01-31T05:43:22.994Z,99.99
2018-01-31T05:43:49.101Z,99.99
2018-01-31T05:44:15.199Z,99.99
2018-01-31T05:44:41.300Z,99.99
2018-01-31T05:45:07.401Z,99.99
2018-01-31T05:45:33.501Z,99.99
2018-01-31T05:45:59.603Z,99.99
2018-01-31T05:46:25.699Z,99.99
2018-01-31T05:46:51.823Z,99.99
2018-01-31T05:47:17.926Z,99.99
2018-01-31T05:47:44.023Z,99.99
2018-01-31T05:48:10.126Z,99.99
2018-01-31T05:48:36.222Z,99.99
2018-01-31T05:49:02.330Z,99.99
2018-01-31T05:49:28.429Z,99.99
2018-01-31T05:49:54.528Z,99.99
2018-01-31T05:50:20.648Z,99.99
2018-01-31T05:50:46.745Z,99.99
2018-01-31T05:51:12.851Z,99.99
2018-01-31T05:51:38.953Z,99.99
2018-01-31T05:52:05.050Z,99.99
2018-01-31T05:52:31.147Z,99.99
2018-01-31T05:52:57.246Z,99.99
2018-01-31T05:53:23.350Z,99.99
2018-01-31T05:53:49.448Z,99.99
2018-01-31T05:54:15.552Z,99.99
2018-01-31T05:54:41.650Z,99.99
2018-01-31T05:55:07.751Z,99.99
2018-01-31T05:55:33.861Z,99.99
2018-01-31T05:55:59.961Z,99.99
2018-01-31T05:56:26.066Z,99.99
2018-01-31T05:56:52.163Z,99.99
2018-01-31T05:57:18.275Z,99.99
2018-01-31T05:57:44.368Z,99.99
2018-01-31T05:58:10.497Z,99.99
2018-01-31T05:58:36.594Z,99.99
2018-01-31T05:59:02.692Z,99.99
2018-01-31T05:59:28.820Z,99.99
2018-01-31T05:59:54.920Z,99.99
2018-01-31T06:00:21.015Z,99.99
2018-01-31T06:00:47.120Z,99.99
2018-01-31T06:01:13.222Z,99.99
2018-01-31T06:01:39.338Z,99.99
2018-01-31T06:02:05.442Z,99.99
2018-01-31T06:02:31.542Z,99.99
2018-01-31T06:02:57.647Z,99.99
2018-01-31T06:03:23.742Z,99.99
2018-01-31T06:03:49.849Z,99.99
2018-01-31T06:04:15.949Z,99.99
2018-01-31T06:04:42.051Z,99.99
2018-01-31T06:05:08.153Z,99.99
2018-01-31T06:05:34.272Z,99.99
2018-01-31T06:06:00.375Z,99.99
2018-01-31T06:06:26.478Z,99.99
2018-01-31T06:06:52.598Z,99.99
2018-01-31T06:07:18.701Z,99.99
2018-01-31T06:07:44.798Z,99.99
2018-01-31T06:08:10.899Z,99.99
2018-01-31T06:08:36.995Z,99.99
2018-01-31T06:09:03.102Z,99.99
2018-01-31T06:09:29.221Z,99.99
2018-01-31T06:09:55.319Z,99.99
2018-01-31T06:10:21.425Z,99.99
2018-01-31T06:10:47.524Z,99.99
2018-01-31T06:11:13.623Z,99.99
2018-01-31T06:11:39.723Z,99.99
2018-01-31T06:12:05.830Z,99.99
2018-01-31T06:12:31.931Z,99.99
2018-01-31T06:12:58.028Z,99.99
2018-01-31T06:13:24.130Z,99.99
2018-01-31T06:13:50.222Z,99.99
2018-01-31T06:14:16.320Z,99.99
2018-01-31T06:14:42.427Z,99.99
2018-01-31T06:15:08.534Z,99.99
2018-01-31T06:15:34.634Z,99.99
2018-01-31T06:16:00.738Z,99.99
2018-01-31T06:16:26.834Z,99.99
2018-01-31T06:16:52.932Z,99.99
2018-01-31T06:17:19.037Z,99.99
2018-01-31T06:17:45.135Z,99.99
2018-01-31T06:18:11.284Z,99.99
2018-01-31T06:18:37.387Z,99.99
2018-01-31T06:19:03.501Z,99.99
2018-01-31T06:19:29.596Z,99.99
2018-01-31T06:19:55.696Z,99.99
2018-01-31T06:20:21.798Z,99.99
2018-01-31T06:20:47.896Z,99.99
2018-01-31T06:21:14.002Z,99.99
2018-01-31T06:21:40.098Z,99.99
2018-01-31T06:22:06.214Z,99.99
2018-01-31T06:22:32.309Z,99.99
2018-01-31T06:22:58.430Z,99.99
2018-01-31T06:23:24.529Z,99.99
2018-01-31T06:23:50.625Z,99.99
2018-01-31T06:24:16.733Z,99.99
2018-01-31T06:24:42.837Z,99.99
2018-01-31T06:25:08.935Z,99.99
2018-01-31T06:25:35.040Z,99.99
2018-01-31T06:26:01.157Z,99.99
2018-01-31T06:26:27.273Z,99.99
2018-01-31T06:26:53.390Z,99.99
2018-01-31T06:27:19.522Z,99.99
2018-01-31T06:27:45.633Z,99.99
2018-01-31T06:28:11.737Z,99.99
2018-01-31T06:28:37.834Z,99.99
2018-01-31T06:29:03.952Z,99.99
2018-01-31T06:29:30.056Z,99.99
2018-01-31T06:29:56.170Z,99.99
2018-01-31T06:30:22.274Z,99.99
2018-01-31T06:30:48.377Z,99.99
2018-01-31T06:31:14.475Z,99.99
2018-01-31T06:31:40.574Z,99.99
2018-01-31T06:32:06.675Z,99.99
2018-01-31T06:32:32.777Z,99.99
2018-01-31T06:32:58.880Z,99.99
2018-01-31T06:33:24.978Z,99.99
2018-01-31T06:33:51.087Z,99.99
2018-01-31T06:34:17.185Z,99.99
2018-01-31T06:34:43.290Z,99.99
2018-01-31T06:35:09.393Z,99.99
2018-01-31T06:35:35.494Z,99.99
2018-01-31T06:36:01.594Z,99.99
2018-01-31T06:36:27.701Z,99.99
2018-01-31T06:36:53.811Z,99.99
2018-01-31T06:37:19.922Z,99.99
2018-01-31T06:37:46.027Z,99.99
2018-01-31T06:38:12.125Z,99.99
2018-01-31T06:38:38.225Z,99.99
2018-01-31T06:39:04.323Z,99.99
2018-01-31T06:39:30.478Z,99.99
2018-01-31T06:39:56.536Z,99.99
2018-01-31T06:40:22.638Z,99.99
2018-01-31T06:40:48.744Z,99.99
2018-01-31T06:41:14.843Z,99.99
2018-01-31T06:41:40.947Z,99.99
2018-01-31T06:42:07.073Z,99.99
2018-01-31T06:42:33.183Z,99.99
2018-01-31T06:42:59.316Z,99.99
2018-01-31T06:43:25.417Z,99.99
2018-01-31T06:43:51.519Z,99.99
2018-01-31T06:44:17.616Z,99.99
2018-01-31T06:44:43.710Z,99.99
2018-01-31T06:45:09.817Z,99.99
2018-01-31T06:45:35.919Z,99.99
2018-01-31T06:46:02.018Z,99.99
2018-01-31T06:46:28.124Z,99.99
2018-01-31T06:46:54.222Z,99.99
2018-01-31T06:47:20.331Z,99.99
2018-01-31T06:47:46.430Z,99.99
2018-01-31T06:48:12.526Z,99.99
2018-01-31T06:48:38.652Z,99.99
2018-01-31T06:49:04.756Z,99.99
2018-01-31T06:49:30.851Z,99.99
2018-01-31T06:49:56.956Z,99.99
2018-01-31T06:50:23.054Z,99.99
2018-01-31T06:50:49.153Z,99.99
2018-01-31T06:51:15.256Z,99.99
2018-01-31T06:51:41.356Z,99.99
2018-01-31T06:52:07.460Z,99.99
2018-01-31T06:52:33.556Z,99.99
2018-01-31T06:52:59.680Z,99.99
2018-01-31T06:53:25.782Z,99.99
2018-01-31T06:53:51.884Z,99.99
2018-01-31T06:54:17.982Z,99.99
2018-01-31T06:54:44.124Z,99.99
2018-01-31T06:55:10.191Z,99.99
2018-01-31T06:55:36.287Z,99.99
2018-01-31T06:56:02.418Z,99.99
2018-01-31T06:56:28.529Z,99.99
2018-01-31T06:56:54.636Z,99.99
2018-01-31T06:57:20.739Z,99.99
2018-01-31T06:57:46.846Z,99.99
2018-01-31T06:58:12.942Z,99.99
2018-01-31T06:58:39.054Z,99.99
2018-01-31T06:59:05.162Z,99.99
2018-01-31T06:59:31.262Z,99.99
2018-01-31T06:59:57.364Z,99.99
2018-01-31T07:00:23.460Z,99.99
2018-01-31T07:00:49.568Z,99.99
2018-01-31T07:01:15.668Z,99.99
2018-01-31T07:01:41.769Z,99.99
2018-01-31T07:02:07.871Z,99.99
2018-01-31T07:02:33.976Z,99.99
2018-01-31T07:03:00.082Z,99.99
2018-01-31T07:03:26.193Z,99.99
2018-01-31T07:03:52.295Z,99.99
2018-01-31T07:04:18.395Z,99.99
2018-01-31T07:04:44.513Z,99.99
2018-01-31T07:05:10.623Z,99.99
2018-01-31T07:05:36.716Z,99.99
2018-01-31T07:06:02.820Z,99.99
2018-01-31T07:06:28.920Z,99.99
2018-01-31T07:06:55.025Z,99.99
2018-01-31T07:07:21.130Z,99.99
2018-01-31T07:07:47.231Z,99.99
2018-01-31T07:08:13.343Z,99.99
2018-01-31T07:08:39.449Z,99.99
2018-01-31T07:09:05.553Z,99.99
2018-01-31T07:09:31.650Z,99.99
2018-01-31T07:09:57.751Z,99.99
2018-01-31T07:10:23.859Z,99.99
2018-01-31T07:10:49.954Z,99.99
2018-01-31T07:11:16.059Z,99.99
2018-01-31T07:11:42.161Z,99.99
2018-01-31T07:12:08.275Z,99.99
2018-01-31T07:12:34.373Z,99.99
2018-01-31T07:13:00.477Z,99.99
2018-01-31T07:13:26.578Z,99.99
2018-01-31T07:13:52.684Z,99.99
2018-01-31T07:14:18.789Z,99.99
2018-01-31T07:14:44.887Z,99.99
2018-01-31T07:15:10.991Z,99.99
2018-01-31T07:15:37.088Z,99.99
2018-01-31T07:16:03.208Z,99.99
2018-01-31T07:16:29.295Z,99.99
2018-01-31T07:16:55.392Z,99.99
2018-01-31T07:17:21.500Z,99.99
2018-01-31T07:17:47.604Z,99.99
2018-01-31T07:18:13.700Z,99.99
2018-01-31T07:18:39.799Z,99.99
2018-01-31T07:19:05.905Z,99.99
2018-01-31T07:19:32.004Z,99.99
2018-01-31T07:19:58.110Z,99.99
2018-01-31T07:20:24.213Z,99.99
2018-01-31T07:20:50.308Z,99.99
2018-01-31T07:21:16.441Z,99.99
2018-01-31T07:21:42.542Z,99.99
2018-01-31T07:22:08.643Z,99.99
2018-01-31T07:22:34.746Z,99.99
2018-01-31T07:23:00.843Z,99.99
2018-01-31T07:23:26.945Z,99.99
2018-01-31T07:23:53.051Z,99.99
2018-01-31T07:24:19.149Z,99.99
2018-01-31T07:24:45.255Z,99.99
2018-01-31T07:25:11.361Z,99.99
2018-01-31T07:25:37.465Z,99.99
2018-01-31T07:26:03.567Z,99.99
2018-01-31T07:26:29.684Z,99.99
2018-01-31T07:26:55.787Z,99.99
2018-01-31T07:27:21.892Z,99.99
2018-01-31T07:27:48.013Z,99.99